createdAt,value
2023-03-03T00:00:38.720Z,98413.41
2023-03-03T00:03:42.934Z,98423.22
2023-03-03T00:06:45.925Z,98415.28
2023-03-03T00:09:48.741Z,98425.97
2023-03-03T00:12:51.948Z,98415.97
2023-03-03T00:15:57.222Z,98422.72
2023-03-03T00:19:01.963Z,98425.38
2023-03-03T00:22:17.238Z,98424.00
2023-03-03T00:25:29.739Z,98427.06
2023-03-03T00:28:42.140Z,98421.63
2023-03-03T00:31:44.812Z,98423.13
2023-03-03T00:34:49.718Z,98417.50
2023-03-03T00:37:56.278Z,98420.91
2023-03-03T00:40:59.102Z,98416.47
2023-03-03T00:44:01.970Z,98419.38
2023-03-03T00:47:31.256Z,98421.06
2023-03-03T00:50:36.727Z,98412.84
2023-03-03T00:53:39.473Z,98411.53
2023-03-03T00:56:42.249Z,98419.44
2023-03-03T00:59:44.988Z,98412.34
2023-03-03T01:02:48.553Z,98411.03
2023-03-03T01:05:53.666Z,98406.06
2023-03-03T01:08:57.378Z,98408.31
2023-03-03T01:12:00.990Z,98401.91
2023-03-03T01:15:03.981Z,98405.63
2023-03-03T01:18:07.082Z,98405.03
2023-03-03T01:21:12.318Z,98404.06
2023-03-03T01:24:15.240Z,98407.72
2023-03-03T01:27:18.294Z,98410.16
2023-03-03T01:30:21.230Z,98411.34
2023-03-03T01:33:23.937Z,98418.28
2023-03-03T01:36:29.564Z,98414.66
2023-03-03T01:39:32.420Z,98411.81
2023-03-03T01:42:35.356Z,98411.91
2023-03-03T01:46:06.739Z,98416.59
2023-03-03T01:49:15.478Z,98411.13
2023-03-03T01:52:27.415Z,98405.19
2023-03-03T01:55:34.892Z,98407.34
2023-03-03T01:58:42.696Z,98398.66
2023-03-03T02:01:48.187Z,98401.84
2023-03-03T02:04:51.584Z,98393.16
2023-03-03T02:07:55.917Z,98391.97
2023-03-03T02:10:59.846Z,98385.44
2023-03-03T02:14:02.705Z,98379.31
2023-03-03T02:17:05.596Z,98385.91
2023-03-03T02:20:14.443Z,98384.47
2023-03-03T02:23:28.027Z,98384.66
2023-03-03T02:26:34.931Z,98386.94
2023-03-03T02:29:37.956Z,98384.50
2023-03-03T02:32:40.868Z,98382.31
2023-03-03T02:35:44.154Z,98381.31
2023-03-03T02:38:52.724Z,98383.47
2023-03-03T02:42:02.495Z,98381.00
2023-03-03T02:45:06.021Z,98378.34
2023-03-03T02:48:08.792Z,98394.53
2023-03-03T02:51:11.688Z,98397.00
2023-03-03T02:54:16.074Z,98402.31
2023-03-03T02:57:20.127Z,98400.66
2023-03-03T03:00:23.056Z,98394.16
2023-03-03T03:03:25.959Z,98400.03
2023-03-03T03:06:28.652Z,98397.94
2023-03-03T03:09:31.423Z,98399.78
2023-03-03T03:12:35.478Z,98388.38
2023-03-03T03:15:38.529Z,98399.94
2023-03-03T03:18:41.326Z,98402.16
2023-03-03T03:21:44.628Z,98399.31
2023-03-03T03:24:47.818Z,98400.06
2023-03-03T03:27:52.132Z,98403.50
2023-03-03T03:30:55.167Z,98406.13
2023-03-03T03:33:57.944Z,98403.81
2023-03-03T03:37:00.659Z,98402.28
2023-03-03T03:40:03.383Z,98405.88
2023-03-03T03:43:08.227Z,98403.41
2023-03-03T03:46:10.966Z,98407.09
2023-03-03T03:49:14.267Z,98400.13
2023-03-03T03:52:17.294Z,98402.84
2023-03-03T03:55:20.174Z,98395.94
2023-03-03T03:58:24.499Z,98394.25
2023-03-03T04:01:27.229Z,98391.88
2023-03-03T04:04:29.882Z,98396.81
2023-03-03T04:07:32.596Z,98397.09
2023-03-03T04:10:35.817Z,98398.19
2023-03-03T04:13:40.089Z,98391.53
2023-03-03T04:16:42.720Z,98398.44
2023-03-03T04:19:45.708Z,98400.63
2023-03-03T04:22:48.829Z,98399.81
2023-03-03T04:25:51.552Z,98406.97
2023-03-03T04:28:59.051Z,98407.78
2023-03-03T04:32:01.831Z,98410.59
2023-03-03T04:35:08.457Z,98413.31
2023-03-03T04:38:11.536Z,98409.59
2023-03-03T04:41:14.459Z,98412.78
2023-03-03T04:44:18.519Z,98411.53
2023-03-03T04:47:21.308Z,98418.53
2023-03-03T04:50:24.044Z,98424.72
2023-03-03T04:53:27.323Z,98433.84
2023-03-03T04:56:32.523Z,98432.75
2023-03-03T04:59:36.917Z,98430.59
2023-03-03T05:02:39.637Z,98431.53
2023-03-03T05:05:42.669Z,98425.44
2023-03-03T05:08:45.600Z,98425.56
2023-03-03T05:11:48.472Z,98428.81
2023-03-03T05:14:52.664Z,98423.28
2023-03-03T05:17:56.438Z,98427.69
2023-03-03T05:20:59.365Z,98423.78
2023-03-03T05:24:02.178Z,98422.88
2023-03-03T05:27:05.587Z,98433.34
2023-03-03T05:30:11.423Z,98440.06
2023-03-03T05:33:16.184Z,98427.84
2023-03-03T05:36:19.027Z,98432.09
2023-03-03T05:39:21.886Z,98436.88
2023-03-03T05:42:24.761Z,98445.44
2023-03-03T05:45:29.160Z,98448.41
2023-03-03T05:48:31.939Z,98451.72
2023-03-03T05:51:34.877Z,98460.50
2023-03-03T05:54:37.871Z,98456.56
2023-03-03T05:57:40.700Z,98450.97
2023-03-03T06:00:44.795Z,98458.41
2023-03-03T06:03:47.738Z,98459.88
2023-03-03T06:06:50.930Z,98455.44
2023-03-03T06:09:53.657Z,98471.53
2023-03-03T06:12:56.356Z,98468.06
2023-03-03T06:16:00.528Z,98474.25
2023-03-03T06:19:03.398Z,98471.34
2023-03-03T06:22:06.088Z,98474.94
2023-03-03T06:25:09.634Z,98476.72
2023-03-03T06:28:13.412Z,98472.81
2023-03-03T06:31:17.571Z,98479.28
2023-03-03T06:34:20.836Z,98489.59
2023-03-03T06:37:23.531Z,98489.44
2023-03-03T06:40:26.430Z,98496.38
2023-03-03T06:43:29.571Z,98497.56
2023-03-03T06:46:33.782Z,98490.97
2023-03-03T06:49:36.753Z,98497.00
2023-03-03T06:52:39.972Z,98498.78
2023-03-03T06:55:44.974Z,98499.31
2023-03-03T06:58:47.767Z,98502.94
2023-03-03T07:01:52.515Z,98509.28
2023-03-03T07:04:57.703Z,98510.22
2023-03-03T07:08:00.385Z,98517.50
2023-03-03T07:11:10.199Z,98514.03
2023-03-03T07:14:17.917Z,98519.59
2023-03-03T07:17:24.356Z,98517.81
2023-03-03T07:20:35.102Z,98517.94
2023-03-03T07:23:42.782Z,98524.34
2023-03-03T07:26:45.947Z,98522.38
2023-03-03T07:29:51.562Z,98527.84
2023-03-03T07:32:57.747Z,98523.94
2023-03-03T07:36:01.265Z,98527.13
2023-03-03T07:39:17.269Z,98533.16
2023-03-03T07:42:23.805Z,98534.44
2023-03-03T07:45:29.104Z,98528.81
2023-03-03T07:48:37.394Z,98523.59
2023-03-03T07:51:42.726Z,98535.63
2023-03-03T07:54:47.731Z,98538.66
2023-03-03T07:57:54.685Z,98542.47
2023-03-03T08:01:27.677Z,98549.88
2023-03-03T08:04:42.148Z,98545.84
2023-03-03T08:07:45.176Z,98553.81
2023-03-03T08:10:50.168Z,98556.69
2023-03-03T08:13:53.108Z,98564.31
2023-03-03T08:16:56.917Z,98557.66
2023-03-03T08:20:01.128Z,98544.34
2023-03-03T08:23:03.901Z,98553.22
2023-03-03T08:26:07.537Z,98554.16
2023-03-03T08:29:12.006Z,98554.50
2023-03-03T08:32:15.333Z,98544.16
2023-03-03T08:35:19.944Z,98550.97
2023-03-03T08:38:23.458Z,98544.03
2023-03-03T08:41:26.265Z,98544.25
2023-03-03T08:44:29.414Z,98539.91
2023-03-03T08:47:32.325Z,98533.31
2023-03-03T08:50:36.684Z,98543.41
2023-03-03T08:53:39.499Z,98548.25
2023-03-03T08:56:42.445Z,98541.31
2023-03-03T08:59:47.835Z,98557.63
2023-03-03T09:02:52.486Z,98555.06
2023-03-03T09:05:57.174Z,98559.84
2023-03-03T09:09:00.148Z,98563.75
2023-03-03T09:12:14.240Z,98565.25
2023-03-03T09:15:21.617Z,98570.34
2023-03-03T09:18:32.959Z,98577.81
2023-03-03T09:21:37.140Z,98578.81
2023-03-03T09:24:39.886Z,98579.19
2023-03-03T09:27:42.736Z,98576.69
2023-03-03T09:30:49.776Z,98573.09
2023-03-03T09:33:55.260Z,98583.13
2023-03-03T09:37:00.084Z,98586.28
2023-03-03T09:40:33.941Z,98580.75
2023-03-03T09:43:43.943Z,98574.44
2023-03-03T09:46:59.581Z,98582.91
2023-03-03T09:50:15.468Z,98574.56
2023-03-03T09:53:34.778Z,98578.00
2023-03-03T09:56:43.614Z,98571.97
2023-03-03T10:00:09.085Z,98574.00
2023-03-03T10:03:39.485Z,98575.63
2023-03-03T10:06:49.950Z,98583.56
2023-03-03T10:10:17.256Z,98578.31
2023-03-03T10:13:38.049Z,98580.41
2023-03-03T10:17:17.034Z,98587.72
2023-03-03T10:20:40.363Z,98582.19
2023-03-03T10:23:58.986Z,98576.88
2023-03-03T10:27:19.961Z,98579.16
2023-03-03T10:30:41.119Z,98579.72
2023-03-03T10:33:55.656Z,98577.41
2023-03-03T10:37:04.625Z,98576.81
2023-03-03T10:40:17.281Z,98574.75
2023-03-03T10:43:42.895Z,98576.31
2023-03-03T10:47:08.807Z,98574.63
2023-03-03T10:50:19.224Z,98576.25
2023-03-03T10:53:33.685Z,98570.94
2023-03-03T10:56:53.340Z,98567.53
2023-03-03T11:00:09.338Z,98572.34
2023-03-03T11:03:50.108Z,98569.69
2023-03-03T11:07:01.055Z,98571.59
2023-03-03T11:10:23.790Z,98564.63
2023-03-03T11:13:37.689Z,98568.97
2023-03-03T11:16:58.893Z,98574.31
2023-03-03T11:20:06.844Z,98571.91
2023-03-03T11:23:41.170Z,98573.78
2023-03-03T11:27:00.106Z,98583.13
2023-03-03T11:30:19.072Z,98585.53
2023-03-03T11:33:28.434Z,98590.31
2023-03-03T11:36:36.088Z,98573.63
2023-03-03T11:39:40.660Z,98576.53
2023-03-03T11:42:55.008Z,98577.81
2023-03-03T11:46:04.909Z,98567.84
2023-03-03T11:49:17.275Z,98568.41
2023-03-03T11:52:31.133Z,98563.53
2023-03-03T11:55:38.254Z,98562.25
2023-03-03T11:58:46.064Z,98560.91
2023-03-03T12:01:57.424Z,98561.13
2023-03-03T12:05:11.735Z,98547.16
2023-03-03T12:08:27.230Z,98547.53
2023-03-03T12:11:39.757Z,98544.91
2023-03-03T12:15:01.115Z,98537.22
2023-03-03T12:18:24.833Z,98539.13
2023-03-03T12:21:46.067Z,98536.47
2023-03-03T12:25:20.401Z,98526.56
2023-03-03T12:28:27.731Z,98522.81
2023-03-03T12:31:47.306Z,98532.97
2023-03-03T12:34:54.844Z,98526.31
2023-03-03T12:38:07.453Z,98515.41
2023-03-03T12:41:16.179Z,98519.44
2023-03-03T12:44:25.250Z,98518.44
2023-03-03T12:47:31.075Z,98517.81
2023-03-03T12:50:44.844Z,98517.41
2023-03-03T12:54:09.187Z,98512.91
2023-03-03T12:57:27.522Z,98521.44
2023-03-03T13:00:42.294Z,98512.06
2023-03-03T13:03:56.128Z,98513.38
2023-03-03T13:07:03.702Z,98514.00
2023-03-03T13:10:18.197Z,98519.03
2023-03-03T13:13:29.474Z,98520.19
2023-03-03T13:16:41.429Z,98513.59
2023-03-03T13:19:49.094Z,98509.19
2023-03-03T13:22:56.736Z,98504.72
2023-03-03T13:26:07.849Z,98501.78
2023-03-03T13:29:16.469Z,98505.94
2023-03-03T13:32:23.318Z,98502.72
2023-03-03T13:35:39.347Z,98495.47
2023-03-03T13:38:48.021Z,98495.53
2023-03-03T13:41:58.352Z,98492.56
2023-03-03T13:45:04.074Z,98492.78
2023-03-03T13:48:23.739Z,98491.66
2023-03-03T13:51:37.290Z,98488.47
2023-03-03T13:55:02.857Z,98493.56
2023-03-03T13:58:22.364Z,98488.72
2023-03-03T14:01:33.342Z,98489.84
2023-03-03T14:04:48.249Z,98484.00
2023-03-03T14:07:57.101Z,98485.66
2023-03-03T14:11:11.431Z,98473.03
2023-03-03T14:14:32.413Z,98469.81
2023-03-03T14:17:42.629Z,98473.84
2023-03-03T14:20:49.272Z,98473.63
2023-03-03T14:24:00.586Z,98463.72
2023-03-03T14:27:24.260Z,98463.44
2023-03-03T14:30:35.197Z,98470.41
2023-03-03T14:33:38.234Z,98461.88
2023-03-03T14:36:43.945Z,98469.75
2023-03-03T14:39:51.634Z,98470.88
2023-03-03T14:42:56.595Z,98461.00
2023-03-03T14:46:33.620Z,98466.38
2023-03-03T14:49:38.562Z,98464.75
2023-03-03T14:52:41.508Z,98460.78
2023-03-03T14:55:46.216Z,98458.59
2023-03-03T14:58:49.209Z,98464.00
2023-03-03T15:01:59.588Z,98466.56
2023-03-03T15:05:21.158Z,98462.06
2023-03-03T15:08:32.473Z,98458.91
2023-03-03T15:11:37.431Z,98452.34
2023-03-03T15:14:45.981Z,98444.91
2023-03-03T15:17:59.188Z,98451.41
2023-03-03T15:21:06.451Z,98449.59
2023-03-03T15:24:19.065Z,98452.06
2023-03-03T15:27:28.037Z,98445.16
2023-03-03T15:30:37.241Z,98434.66
2023-03-03T15:33:48.031Z,98445.97
2023-03-03T15:36:56.824Z,98438.47
2023-03-03T15:40:06.095Z,98442.47
2023-03-03T15:43:21.326Z,98442.28
2023-03-03T15:46:37.161Z,98438.50
2023-03-03T15:50:10.592Z,98439.84
2023-03-03T15:53:38.113Z,98451.13
2023-03-03T15:56:48.036Z,98440.69
2023-03-03T16:00:16.177Z,98456.50
2023-03-03T16:03:24.818Z,98450.63
2023-03-03T16:06:38.578Z,98454.38
2023-03-03T16:09:57.467Z,98450.63
2023-03-03T16:13:08.482Z,98457.59
2023-03-03T16:16:25.878Z,98457.56
2023-03-03T16:19:41.224Z,98455.94
2023-03-03T16:22:57.358Z,98459.69
2023-03-03T16:26:27.784Z,98468.28
2023-03-03T16:29:42.460Z,98467.44
2023-03-03T16:32:50.664Z,98468.72
2023-03-03T16:36:04.596Z,98476.22
2023-03-03T16:39:16.316Z,98483.69
2023-03-03T16:42:26.561Z,98489.25
2023-03-03T16:45:36.555Z,98498.06
2023-03-03T16:48:46.864Z,98498.47
2023-03-03T16:51:54.861Z,98506.91
2023-03-03T16:55:06.128Z,98509.19
2023-03-03T16:58:23.269Z,98512.06
2023-03-03T17:01:33.292Z,98516.69
2023-03-03T17:04:42.469Z,98512.22
2023-03-03T17:07:55.470Z,98514.47
2023-03-03T17:11:05.711Z,98515.06
2023-03-03T17:14:19.934Z,98517.41
2023-03-03T17:17:32.722Z,98520.38
2023-03-03T17:20:40.700Z,98529.25
2023-03-03T17:23:52.808Z,98534.44
2023-03-03T17:27:13.598Z,98540.63
2023-03-03T17:30:22.467Z,98541.78
2023-03-03T17:33:59.255Z,98551.47
2023-03-03T17:37:16.837Z,98550.72
2023-03-03T17:40:42.464Z,98549.53
2023-03-03T17:43:57.552Z,98560.81
2023-03-03T17:47:05.453Z,98559.03
2023-03-03T17:50:23.138Z,98564.50
2023-03-03T17:53:51.189Z,98566.59
2023-03-03T17:57:06.192Z,98572.31
2023-03-03T18:00:25.749Z,98576.75
2023-03-03T18:04:04.261Z,98579.47
2023-03-03T18:07:29.958Z,98591.38
2023-03-03T18:10:53.214Z,98594.44
2023-03-03T18:14:31.283Z,98592.81
2023-03-03T18:17:49.141Z,98593.75
2023-03-03T18:21:01.396Z,98601.66
2023-03-03T18:24:31.724Z,98610.91
2023-03-03T18:27:36.970Z,98616.59
2023-03-03T18:30:56.991Z,98608.75
2023-03-03T18:34:09.777Z,98611.41
2023-03-03T18:37:37.760Z,98611.50
2023-03-03T18:40:51.813Z,98614.53
2023-03-03T18:44:00.473Z,98622.19
2023-03-03T18:47:03.289Z,98620.78
2023-03-03T18:50:17.397Z,98624.94
2023-03-03T18:53:24.790Z,98627.63
2023-03-03T18:56:46.008Z,98636.19
2023-03-03T18:59:58.383Z,98643.38
2023-03-03T19:03:01.525Z,98634.34
2023-03-03T19:06:10.221Z,98641.28
2023-03-03T19:09:18.836Z,98644.88
2023-03-03T19:12:52.019Z,98650.53
2023-03-03T19:15:59.243Z,98645.63
2023-03-03T19:19:07.393Z,98650.97
2023-03-03T19:22:25.622Z,98649.22
2023-03-03T19:25:31.741Z,98650.75
2023-03-03T19:28:43.496Z,98655.47
2023-03-03T19:31:54.301Z,98657.72
2023-03-03T19:35:09.753Z,98650.56
2023-03-03T19:38:26.215Z,98651.91
2023-03-03T19:41:45.621Z,98650.44
2023-03-03T19:45:03.827Z,98646.13
2023-03-03T19:48:15.735Z,98657.25
2023-03-03T19:51:29.324Z,98663.94
2023-03-03T19:54:49.165Z,98666.22
2023-03-03T19:58:03.597Z,98664.47
2023-03-03T20:01:19.050Z,98670.38
2023-03-03T20:04:54.037Z,98665.06
2023-03-03T20:08:02.889Z,98669.78
2023-03-03T20:11:13.448Z,98672.09
2023-03-03T20:14:32.249Z,98669.09
2023-03-03T20:18:10.701Z,98673.81
2023-03-03T20:21:25.311Z,98676.19
2023-03-03T20:24:59.978Z,98672.88
2023-03-03T20:28:14.167Z,98678.78
2023-03-03T20:31:23.503Z,98678.78
2023-03-03T20:34:38.976Z,98684.63
2023-03-03T20:37:53.631Z,98683.31
2023-03-03T20:41:06.505Z,98680.50
2023-03-03T20:44:19.277Z,98684.88
2023-03-03T20:47:34.412Z,98686.13
2023-03-03T20:50:51.268Z,98686.22
2023-03-03T20:54:07.389Z,98692.19
2023-03-03T20:57:18.000Z,98693.19
2023-03-03T21:00:26.073Z,98706.06
2023-03-03T21:03:34.255Z,98695.50
2023-03-03T21:06:41.581Z,98694.31
2023-03-03T21:09:47.412Z,98694.81
2023-03-03T21:12:50.367Z,98704.50
2023-03-03T21:15:56.998Z,98698.38
2023-03-03T21:19:03.102Z,98711.28
2023-03-03T21:22:07.319Z,98701.25
2023-03-03T21:25:13.609Z,98712.03
2023-03-03T21:28:22.426Z,98704.13
2023-03-03T21:31:25.435Z,98713.88
2023-03-03T21:34:30.661Z,98709.44
2023-03-03T21:37:52.262Z,98712.31
2023-03-03T21:41:01.255Z,98709.94
2023-03-03T21:44:31.172Z,98704.56
2023-03-03T21:47:34.018Z,98713.91
2023-03-03T21:50:36.932Z,98710.47
2023-03-03T21:53:41.415Z,98707.50
2023-03-03T21:56:44.305Z,98710.16
2023-03-03T21:59:47.424Z,98708.97
2023-03-03T22:02:50.292Z,98711.84
2023-03-03T22:05:53.586Z,98708.53
2023-03-03T22:08:58.013Z,98711.03
2023-03-03T22:12:00.929Z,98706.22
2023-03-03T22:15:04.056Z,98708.88
2023-03-03T22:18:07.028Z,98715.88
2023-03-03T22:21:09.941Z,98712.91
2023-03-03T22:24:14.186Z,98720.03
2023-03-03T22:27:17.014Z,98713.72
2023-03-03T22:30:20.050Z,98707.22
2023-03-03T22:33:23.278Z,98712.31
2023-03-03T22:36:26.236Z,98713.16
2023-03-03T22:39:30.581Z,98712.84
2023-03-03T22:42:33.548Z,98707.75
2023-03-03T22:45:36.557Z,98712.09
2023-03-03T22:48:40.004Z,98710.50
2023-03-03T22:51:43.258Z,98717.41
2023-03-03T22:54:47.458Z,98714.44
2023-03-03T22:57:50.356Z,98722.44
2023-03-03T23:00:54.497Z,98718.00
2023-03-03T23:03:57.383Z,98727.84
2023-03-03T23:07:00.384Z,98728.69
2023-03-03T23:10:05.833Z,98729.09
2023-03-03T23:13:09.004Z,98730.00
2023-03-03T23:16:12.085Z,98729.78
2023-03-03T23:19:15.008Z,98733.63
2023-03-03T23:22:18.746Z,98739.53
2023-03-03T23:25:24.167Z,98736.06
2023-03-03T23:28:26.918Z,98736.69
2023-03-03T23:31:30.585Z,98734.09
2023-03-03T23:34:33.766Z,98736.06
2023-03-03T23:37:36.732Z,98736.50
2023-03-03T23:40:40.937Z,98737.34
2023-03-03T23:43:43.793Z,98738.19
2023-03-03T23:46:46.610Z,98743.47
2023-03-03T23:49:49.377Z,98741.22
2023-03-03T23:52:53.046Z,98743.91
2023-03-03T23:55:57.230Z,98740.47
2023-03-03T23:58:59.944Z,98742.75
